createdAt,value
2022-11-13T00:00:07.931Z,13.48
2022-11-13T00:01:13.551Z,14.25
2022-11-13T00:02:15.281Z,13.50
2022-11-13T00:03:17.862Z,14.02
2022-11-13T00:04:19.441Z,12.77
2022-11-13T00:05:21.981Z,13.32
2022-11-13T00:06:24.506Z,13.57
2022-11-13T00:07:26.097Z,15.10
2022-11-13T00:08:29.000Z,15.15
2022-11-13T00:09:30.887Z,14.35
2022-11-13T00:10:33.357Z,14.82
2022-11-13T00:11:35.880Z,15.52
2022-11-13T00:12:37.440Z,14.63
2022-11-13T00:13:40.370Z,14.45
2022-11-13T00:14:41.943Z,14.45
2022-11-13T00:15:44.462Z,14.45
2022-11-13T00:16:47.407Z,15.20
2022-11-13T00:17:49.963Z,14.65
2022-11-13T00:18:51.618Z,14.70
2022-11-13T00:19:54.266Z,13.80
2022-11-13T00:20:56.057Z,15.52
2022-11-13T00:21:59.574Z,14.43
2022-11-13T00:23:01.094Z,14.98
2022-11-13T00:24:03.645Z,14.73
2022-11-13T00:25:05.704Z,13.93
2022-11-13T00:26:09.666Z,13.55
2022-11-13T00:27:11.522Z,14.27
2022-11-13T00:28:14.141Z,14.02
2022-11-13T00:29:16.713Z,14.70
2022-11-13T00:30:19.661Z,14.02
2022-11-13T00:31:22.529Z,14.50
2022-11-13T00:32:26.245Z,14.63
2022-11-13T00:33:55.108Z,14.98
2022-11-13T00:34:50.596Z,13.85
2022-11-13T00:35:53.496Z,15.98
2022-11-13T00:36:55.076Z,12.48
2022-11-13T00:37:57.593Z,13.15
2022-11-13T00:38:59.154Z,12.95
2022-11-13T00:40:01.680Z,13.35
2022-11-13T00:41:03.346Z,12.85
2022-11-13T00:42:06.267Z,13.23
2022-11-13T00:43:07.792Z,14.13
2022-11-13T00:44:13.023Z,14.10
2022-11-13T00:45:14.830Z,13.88
2022-11-13T00:46:17.410Z,13.32
2022-11-13T00:47:19.153Z,12.48
2022-11-13T00:48:23.048Z,13.07
2022-11-13T00:49:24.636Z,12.80
2022-11-13T00:50:27.269Z,12.20
2022-11-13T00:51:28.949Z,13.52
2022-11-13T00:52:31.500Z,13.48
2022-11-13T00:53:33.126Z,12.73
2022-11-13T00:54:35.660Z,12.57
2022-11-13T00:55:37.348Z,12.57
2022-11-13T00:56:39.904Z,13.05
2022-11-13T00:57:41.497Z,13.25
2022-11-13T00:58:44.152Z,12.88
2022-11-13T00:59:45.721Z,13.35
2022-11-13T01:00:48.974Z,14.30
2022-11-13T01:01:50.588Z,13.32
2022-11-13T01:02:53.121Z,12.60
2022-11-13T01:03:56.112Z,12.77
2022-11-13T01:04:58.699Z,13.25
2022-11-13T01:06:00.461Z,12.90
2022-11-13T01:07:03.127Z,14.07
2022-11-13T01:08:05.853Z,12.57
2022-11-13T01:09:08.383Z,12.57
2022-11-13T01:10:10.600Z,13.65
2022-11-13T01:11:14.872Z,12.70
2022-11-13T01:12:16.481Z,13.20
2022-11-13T01:13:19.092Z,11.95
2022-11-13T01:14:20.652Z,13.02
2022-11-13T01:15:23.250Z,12.63
2022-11-13T01:16:28.194Z,12.60
2022-11-13T01:17:29.834Z,12.38
2022-11-13T01:18:32.576Z,12.55
2022-11-13T01:19:35.640Z,12.70
2022-11-13T01:20:38.516Z,12.18
2022-11-13T01:21:40.146Z,12.43
2022-11-13T01:22:42.717Z,11.90
2022-11-13T01:23:44.677Z,12.30
2022-11-13T01:24:47.227Z,13.73
2022-11-13T01:25:48.832Z,12.60
2022-11-13T01:26:51.390Z,12.77
2022-11-13T01:27:52.932Z,12.38
2022-11-13T01:28:56.209Z,12.63
2022-11-13T01:29:57.779Z,12.82
2022-11-13T01:31:00.365Z,13.40
2022-11-13T01:32:02.888Z,12.25
2022-11-13T01:33:04.430Z,12.27
2022-11-13T01:34:06.997Z,12.52
2022-11-13T01:35:10.394Z,12.52
2022-11-13T01:36:15.892Z,13.30
2022-11-13T01:37:17.473Z,11.98
2022-11-13T01:38:20.186Z,12.15
2022-11-13T01:39:21.778Z,13.38
2022-11-13T01:40:24.492Z,13.07
2022-11-13T01:41:28.260Z,11.45
2022-11-13T01:42:33.411Z,11.57
2022-11-13T01:43:37.235Z,12.13
2022-11-13T01:44:51.271Z,12.13
2022-11-13T01:46:07.798Z,12.98
2022-11-13T01:47:10.713Z,11.90
2022-11-13T01:48:12.551Z,13.63
2022-11-13T01:49:31.089Z,12.02
2022-11-13T01:50:34.105Z,11.65
2022-11-13T01:51:39.497Z,11.27
2022-11-13T01:52:41.320Z,11.82
2022-11-13T01:53:45.333Z,11.60
2022-11-13T01:54:50.943Z,12.25
2022-11-13T01:55:52.796Z,13.17
2022-11-13T01:56:55.882Z,12.50
2022-11-13T01:57:58.194Z,11.98
2022-11-13T01:59:15.740Z,11.90
2022-11-13T02:00:17.546Z,12.45
2022-11-13T02:01:20.233Z,12.48
2022-11-13T02:02:21.860Z,12.15
2022-11-13T02:03:24.441Z,12.77
2022-11-13T02:04:27.666Z,12.40
2022-11-13T02:05:29.306Z,12.02
2022-11-13T02:06:37.946Z,12.73
2022-11-13T02:07:39.580Z,12.52
2022-11-13T02:08:42.237Z,11.35
2022-11-13T02:09:45.890Z,11.98
2022-11-13T02:10:48.804Z,11.88
2022-11-13T02:11:50.966Z,12.05
2022-11-13T02:12:53.756Z,12.40
2022-11-13T02:13:55.295Z,11.48
2022-11-13T02:14:58.589Z,11.65
2022-11-13T02:16:01.141Z,12.50
2022-11-13T02:17:08.078Z,13.32
2022-11-13T02:18:11.476Z,12.13
2022-11-13T02:19:18.260Z,13.20
2022-11-13T02:20:21.473Z,11.23
2022-11-13T02:21:32.531Z,11.30
2022-11-13T02:22:37.095Z,11.07
2022-11-13T02:23:46.559Z,12.32
2022-11-13T02:24:54.689Z,12.02
2022-11-13T02:25:56.569Z,11.65
2022-11-13T02:27:02.112Z,11.05
2022-11-13T02:28:03.820Z,11.32
2022-11-13T02:29:06.362Z,10.90
2022-11-13T02:30:16.057Z,11.80
2022-11-13T02:31:18.859Z,11.15
2022-11-13T02:32:20.466Z,11.38
2022-11-13T02:33:25.985Z,11.70
2022-11-13T02:34:27.534Z,11.43
2022-11-13T02:35:33.427Z,11.75
2022-11-13T02:36:36.030Z,11.35
2022-11-13T02:37:38.540Z,11.70
2022-11-13T02:38:41.299Z,10.88
2022-11-13T02:39:43.802Z,11.52
2022-11-13T02:40:47.080Z,11.45
2022-11-13T02:41:49.584Z,11.50
2022-11-13T02:42:51.151Z,11.88
2022-11-13T02:43:53.624Z,11.38
2022-11-13T02:44:55.213Z,12.15
2022-11-13T02:45:57.821Z,11.65
2022-11-13T02:46:59.352Z,11.10
2022-11-13T02:48:02.259Z,10.85
2022-11-13T02:49:05.677Z,11.43
2022-11-13T02:50:08.969Z,11.57
2022-11-13T02:51:11.747Z,11.57
2022-11-13T02:52:13.431Z,11.98
2022-11-13T02:53:16.111Z,11.10
2022-11-13T02:54:17.672Z,10.80
2022-11-13T02:55:20.643Z,10.95
2022-11-13T02:56:23.685Z,11.63
2022-11-13T02:57:26.253Z,12.25
2022-11-13T02:58:28.084Z,11.77
2022-11-13T02:59:30.919Z,11.20
2022-11-13T03:00:32.536Z,11.63
2022-11-13T03:01:35.078Z,10.68
2022-11-13T03:02:36.653Z,11.65
2022-11-13T03:04:08.943Z,11.07
2022-11-13T03:05:16.033Z,10.40
2022-11-13T03:06:18.602Z,10.20
2022-11-13T03:07:20.288Z,10.40
2022-11-13T03:08:24.094Z,10.98
2022-11-13T03:09:25.676Z,10.38
2022-11-13T03:10:28.292Z,10.95
2022-11-13T03:11:32.260Z,11.20
2022-11-13T03:12:33.952Z,10.38
2022-11-13T03:13:36.784Z,9.60
2022-11-13T03:14:38.412Z,10.35
2022-11-13T03:15:41.177Z,11.35
2022-11-13T03:16:42.765Z,10.75
2022-11-13T03:17:45.344Z,10.05
2022-11-13T03:18:46.921Z,10.35
2022-11-13T03:19:49.439Z,10.63
2022-11-13T03:20:53.982Z,9.27
2022-11-13T03:21:56.639Z,10.80
2022-11-13T03:22:58.238Z,11.15
2022-11-13T03:24:00.826Z,11.02
2022-11-13T03:25:07.436Z,10.70
2022-11-13T03:26:14.586Z,9.60
2022-11-13T03:27:17.514Z,10.25
2022-11-13T03:28:20.107Z,10.05
2022-11-13T03:29:21.795Z,10.70
2022-11-13T03:30:24.360Z,10.00
2022-11-13T03:31:25.961Z,8.98
2022-11-13T03:32:28.563Z,10.20
2022-11-13T03:33:30.357Z,10.38
2022-11-13T03:34:33.456Z,10.00
2022-11-13T03:35:42.950Z,9.63
2022-11-13T03:36:48.195Z,10.52
2022-11-13T03:37:50.373Z,8.98
2022-11-13T03:38:52.944Z,8.50
2022-11-13T03:39:54.561Z,10.63
2022-11-13T03:40:57.257Z,9.88
2022-11-13T03:41:58.940Z,9.60
2022-11-13T03:43:02.883Z,9.57
2022-11-13T03:44:04.567Z,10.35
2022-11-13T03:45:07.589Z,9.43
2022-11-13T03:46:09.766Z,9.95
2022-11-13T03:47:12.443Z,9.52
2022-11-13T03:48:14.291Z,9.77
2022-11-13T03:49:16.864Z,9.85
2022-11-13T03:50:18.491Z,10.23
2022-11-13T03:51:21.079Z,8.80
2022-11-13T03:52:22.727Z,9.80
2022-11-13T03:53:25.316Z,9.85
2022-11-13T03:54:26.926Z,9.88
2022-11-13T03:55:29.551Z,9.88
2022-11-13T03:56:31.184Z,9.02
2022-11-13T03:57:33.846Z,9.18
2022-11-13T03:58:40.112Z,9.00
2022-11-13T03:59:43.132Z,9.40
2022-11-13T04:00:45.636Z,9.25
2022-11-13T04:01:48.382Z,8.70
2022-11-13T04:02:50.008Z,8.25
2022-11-13T04:03:52.546Z,10.30
2022-11-13T04:04:54.089Z,8.98
2022-11-13T04:05:56.635Z,8.95
2022-11-13T04:06:58.269Z,9.40
2022-11-13T04:08:00.948Z,8.88
2022-11-13T04:09:02.486Z,8.60
2022-11-13T04:10:05.825Z,9.23
2022-11-13T04:11:08.483Z,9.02
2022-11-13T04:12:11.155Z,10.32
2022-11-13T04:13:12.805Z,9.05
2022-11-13T04:14:16.736Z,9.60
2022-11-13T04:15:18.683Z,9.07
2022-11-13T04:16:21.258Z,9.85
2022-11-13T04:17:22.801Z,8.70
2022-11-13T04:18:25.480Z,9.20
2022-11-13T04:19:27.243Z,9.57
2022-11-13T04:20:30.001Z,10.00
2022-11-13T04:21:31.629Z,9.27
2022-11-13T04:22:34.248Z,9.77
2022-11-13T04:23:35.795Z,9.18
2022-11-13T04:24:38.327Z,9.40
2022-11-13T04:25:39.921Z,9.60
2022-11-13T04:26:42.487Z,10.02
2022-11-13T04:27:44.013Z,9.52
2022-11-13T04:28:46.546Z,9.82
2022-11-13T04:29:49.409Z,10.30
2022-11-13T04:30:53.851Z,8.38
2022-11-13T04:31:55.414Z,9.07
2022-11-13T04:32:57.907Z,8.93
2022-11-13T04:33:59.586Z,9.30
2022-11-13T04:35:02.093Z,8.77
2022-11-13T04:36:03.810Z,9.23
2022-11-13T04:37:06.326Z,8.85
2022-11-13T04:38:07.948Z,9.00
2022-11-13T04:39:13.253Z,8.63
2022-11-13T04:40:15.103Z,9.15
2022-11-13T04:41:35.478Z,9.45
2022-11-13T04:42:50.320Z,9.30
2022-11-13T04:43:51.925Z,9.38
2022-11-13T04:44:55.867Z,9.43
2022-11-13T04:45:57.405Z,9.35
2022-11-13T04:46:59.951Z,9.32
2022-11-13T04:48:01.537Z,9.23
2022-11-13T04:49:04.301Z,8.05
2022-11-13T04:50:06.524Z,9.23
2022-11-13T04:51:09.133Z,9.50
2022-11-13T04:52:11.127Z,9.88
2022-11-13T04:53:13.715Z,9.70
2022-11-13T04:54:15.689Z,8.65
2022-11-13T04:55:18.638Z,8.68
2022-11-13T04:56:20.309Z,8.98
2022-11-13T04:57:22.887Z,8.88
2022-11-13T04:58:24.418Z,9.80
2022-11-13T04:59:26.966Z,9.90
2022-11-13T05:00:29.908Z,8.93
2022-11-13T05:01:32.591Z,9.70
2022-11-13T05:02:34.320Z,8.63
2022-11-13T05:03:37.003Z,9.30
2022-11-13T05:04:38.556Z,9.63
2022-11-13T05:05:41.163Z,9.18
2022-11-13T05:06:42.790Z,9.57
2022-11-13T05:07:45.371Z,9.60
2022-11-13T05:08:47.635Z,9.45
2022-11-13T05:09:50.208Z,9.80
2022-11-13T05:10:51.751Z,9.32
2022-11-13T05:11:54.259Z,9.30
2022-11-13T05:12:56.214Z,8.82
2022-11-13T05:14:03.185Z,10.23
2022-11-13T05:15:07.336Z,9.27
2022-11-13T05:16:12.242Z,9.07
2022-11-13T05:17:15.029Z,9.75
2022-11-13T05:18:16.562Z,8.98
2022-11-13T05:19:19.248Z,8.90
2022-11-13T05:20:21.027Z,9.23
2022-11-13T05:21:23.565Z,9.52
2022-11-13T05:22:25.149Z,9.48
2022-11-13T05:23:27.734Z,9.20
2022-11-13T05:24:29.665Z,9.27
2022-11-13T05:25:32.530Z,9.35
2022-11-13T05:26:34.085Z,8.95
2022-11-13T05:27:36.545Z,9.27
2022-11-13T05:28:38.823Z,8.63
2022-11-13T05:29:41.372Z,8.85
2022-11-13T05:30:42.946Z,9.30
2022-11-13T05:31:47.218Z,9.23
2022-11-13T05:32:48.747Z,9.70
2022-11-13T05:33:51.345Z,9.52
2022-11-13T05:34:52.969Z,9.57
2022-11-13T05:35:55.501Z,8.98
2022-11-13T05:36:58.101Z,9.50
2022-11-13T05:38:00.413Z,9.18
2022-11-13T05:39:03.185Z,9.98
2022-11-13T05:40:05.937Z,9.57
2022-11-13T05:41:10.440Z,9.02
2022-11-13T05:42:13.356Z,9.73
2022-11-13T05:43:14.907Z,9.52
2022-11-13T05:44:17.441Z,8.55
2022-11-13T05:45:19.007Z,8.95
2022-11-13T05:46:23.592Z,8.95
2022-11-13T05:47:26.530Z,8.70
2022-11-13T05:48:29.574Z,9.02
2022-11-13T05:49:31.652Z,9.32
2022-11-13T05:50:34.169Z,8.82
2022-11-13T05:51:35.712Z,8.77
2022-11-13T05:52:38.209Z,9.35
2022-11-13T05:53:39.980Z,8.45
2022-11-13T05:54:42.464Z,9.90
2022-11-13T05:55:44.029Z,8.63
2022-11-13T05:56:46.626Z,8.88
2022-11-13T05:57:48.190Z,9.10
2022-11-13T05:58:51.743Z,8.38
2022-11-13T05:59:53.367Z,8.98
2022-11-13T06:01:05.128Z,8.70
2022-11-13T06:02:07.761Z,9.02
2022-11-13T06:03:11.130Z,8.80
2022-11-13T06:04:13.907Z,9.05
2022-11-13T06:05:15.559Z,9.43
2022-11-13T06:06:19.767Z,8.82
2022-11-13T06:07:21.453Z,8.30
2022-11-13T06:08:24.071Z,8.63
2022-11-13T06:09:25.657Z,8.35
2022-11-13T06:10:28.252Z,8.88
2022-11-13T06:11:30.852Z,9.75
2022-11-13T06:12:33.370Z,9.75
2022-11-13T06:13:35.105Z,9.38
2022-11-13T06:14:37.635Z,8.63
2022-11-13T06:15:39.178Z,9.63
2022-11-13T06:16:41.778Z,9.73
2022-11-13T06:17:45.575Z,10.35
2022-11-13T06:18:50.415Z,10.52
2022-11-13T06:19:52.941Z,8.52
2022-11-13T06:20:54.518Z,8.90
2022-11-13T06:21:57.046Z,9.15
2022-11-13T06:22:58.634Z,9.57
2022-11-13T06:24:01.937Z,8.98
2022-11-13T06:25:04.028Z,8.68
2022-11-13T06:26:08.455Z,8.63
2022-11-13T06:27:10.423Z,9.20
2022-11-13T06:28:16.000Z,8.85
2022-11-13T06:29:18.870Z,8.80
2022-11-13T06:30:20.829Z,10.13
2022-11-13T06:31:25.962Z,8.38
2022-11-13T06:32:28.504Z,8.45
2022-11-13T06:33:30.122Z,9.15
2022-11-13T06:34:34.017Z,8.80
2022-11-13T06:35:35.586Z,9.13
2022-11-13T06:36:38.695Z,9.07
2022-11-13T06:37:40.259Z,9.63
2022-11-13T06:38:43.666Z,8.48
2022-11-13T06:39:45.319Z,9.85
2022-11-13T06:40:47.819Z,9.35
2022-11-13T06:41:50.462Z,8.65
2022-11-13T06:42:52.789Z,9.50
2022-11-13T06:43:58.569Z,8.80
2022-11-13T06:45:05.181Z,8.82
2022-11-13T06:46:12.286Z,9.00
2022-11-13T06:47:14.812Z,8.27
2022-11-13T06:48:16.438Z,8.43
2022-11-13T06:49:19.064Z,10.30
2022-11-13T06:50:22.041Z,9.52
2022-11-13T06:51:25.974Z,9.55
2022-11-13T06:52:27.581Z,8.82
2022-11-13T06:53:30.237Z,9.00
2022-11-13T06:54:31.783Z,8.95
2022-11-13T06:55:34.527Z,9.85
2022-11-13T06:56:36.141Z,8.88
2022-11-13T06:57:38.671Z,9.07
2022-11-13T06:58:40.832Z,9.07
2022-11-13T06:59:43.809Z,8.77
2022-11-13T07:00:45.801Z,8.23
2022-11-13T07:01:51.393Z,9.00
2022-11-13T07:02:52.984Z,8.77
2022-11-13T07:03:56.434Z,9.15
2022-11-13T07:04:57.967Z,9.73
2022-11-13T07:06:04.269Z,9.85
2022-11-13T07:07:05.943Z,8.55
2022-11-13T07:08:08.502Z,8.77
2022-11-13T07:09:11.156Z,8.73
2022-11-13T07:10:12.697Z,8.88
2022-11-13T07:11:16.972Z,8.20
2022-11-13T07:12:18.509Z,9.35
2022-11-13T07:13:21.062Z,9.15
2022-11-13T07:14:23.675Z,8.65
2022-11-13T07:15:25.245Z,8.85
2022-11-13T07:16:38.953Z,8.77
2022-11-13T07:17:49.269Z,9.07
2022-11-13T07:18:52.603Z,9.20
2022-11-13T07:19:54.171Z,8.90
2022-11-13T07:20:56.691Z,8.95
2022-11-13T07:21:59.620Z,8.63
2022-11-13T07:23:03.653Z,9.35
2022-11-13T07:24:05.925Z,8.32
2022-11-13T07:25:09.570Z,9.00
2022-11-13T07:26:11.919Z,9.85
2022-11-13T07:27:14.436Z,10.27
2022-11-13T07:28:15.961Z,9.50
2022-11-13T07:29:18.476Z,9.43
2022-11-13T07:30:20.613Z,9.23
2022-11-13T07:31:23.250Z,10.30
2022-11-13T07:32:24.922Z,9.68
2022-11-13T07:33:27.581Z,8.80
2022-11-13T07:34:30.062Z,9.55
2022-11-13T07:35:31.703Z,9.38
2022-11-13T07:36:34.220Z,10.18
2022-11-13T07:37:37.151Z,9.40
2022-11-13T07:38:39.683Z,9.55
2022-11-13T07:39:41.256Z,8.80
2022-11-13T07:40:43.753Z,9.57
2022-11-13T07:41:47.204Z,8.57
2022-11-13T07:42:49.726Z,8.32
2022-11-13T07:43:51.267Z,9.10
2022-11-13T07:44:55.369Z,9.00
2022-11-13T07:45:59.238Z,8.63
2022-11-13T07:47:00.797Z,8.60
2022-11-13T07:48:04.236Z,8.88
2022-11-13T07:49:05.979Z,8.45
2022-11-13T07:50:10.980Z,7.80
2022-11-13T07:51:13.931Z,8.75
2022-11-13T07:52:15.592Z,7.95
2022-11-13T07:53:20.291Z,8.57
2022-11-13T07:54:21.813Z,8.23
2022-11-13T07:55:24.353Z,7.20
2022-11-13T07:56:27.262Z,6.93
2022-11-13T07:57:28.852Z,7.72
2022-11-13T07:58:31.862Z,7.82
2022-11-13T07:59:34.618Z,8.75
2022-11-13T08:00:36.306Z,7.38
2022-11-13T08:01:39.055Z,8.40
2022-11-13T08:02:40.689Z,7.82
2022-11-13T08:03:43.205Z,7.60
2022-11-13T08:04:44.771Z,8.23
2022-11-13T08:05:47.284Z,7.95
2022-11-13T08:06:48.856Z,7.72
2022-11-13T08:07:52.697Z,8.75
2022-11-13T08:08:56.807Z,7.35
2022-11-13T08:09:59.414Z,8.00
2022-11-13T08:11:05.038Z,7.25
2022-11-13T08:12:08.064Z,7.25
2022-11-13T08:13:11.356Z,7.35
2022-11-13T08:14:14.151Z,7.05
2022-11-13T08:15:15.846Z,7.15
2022-11-13T08:16:18.368Z,6.78
2022-11-13T08:17:19.932Z,7.78
2022-11-13T08:18:22.535Z,6.45
2022-11-13T08:19:24.183Z,6.28
2022-11-13T08:20:28.395Z,6.32
2022-11-13T08:21:31.261Z,6.03
2022-11-13T08:22:33.315Z,6.40
2022-11-13T08:23:35.917Z,6.07
2022-11-13T08:24:38.850Z,6.10
2022-11-13T08:25:41.394Z,6.05
2022-11-13T08:26:43.916Z,5.72
2022-11-13T08:27:45.888Z,5.32
2022-11-13T08:28:48.826Z,6.57
2022-11-13T08:29:50.911Z,5.30
2022-11-13T08:30:53.540Z,5.80
2022-11-13T08:31:55.074Z,5.53
2022-11-13T08:32:57.630Z,5.15
2022-11-13T08:34:00.962Z,5.72
2022-11-13T08:35:03.554Z,5.25
2022-11-13T08:36:06.671Z,4.95
2022-11-13T08:37:08.374Z,4.65
2022-11-13T08:38:11.184Z,4.95
2022-11-13T08:39:14.253Z,5.07
2022-11-13T08:40:18.407Z,5.40
2022-11-13T08:41:20.056Z,5.25
2022-11-13T08:42:22.754Z,5.20
2022-11-13T08:43:25.349Z,5.55
2022-11-13T08:44:26.982Z,5.22
2022-11-13T08:45:30.459Z,4.88
2022-11-13T08:46:33.021Z,4.75
2022-11-13T08:47:35.788Z,4.90
2022-11-13T08:48:38.475Z,4.70
2022-11-13T08:49:40.041Z,5.05
2022-11-13T08:50:42.830Z,4.78
2022-11-13T08:51:45.403Z,4.47
2022-11-13T08:52:47.980Z,5.00
2022-11-13T08:53:49.557Z,4.88
2022-11-13T08:54:52.104Z,5.18
2022-11-13T08:55:54.995Z,5.07
2022-11-13T08:57:02.016Z,5.10
2022-11-13T08:58:07.340Z,4.80
2022-11-13T08:59:09.414Z,5.07
2022-11-13T09:00:15.297Z,4.57
2022-11-13T09:01:16.955Z,5.25
2022-11-13T09:02:19.538Z,4.57
2022-11-13T09:03:21.133Z,4.90
2022-11-13T09:04:23.875Z,5.30
2022-11-13T09:05:25.580Z,5.00
2022-11-13T09:06:28.089Z,4.97
2022-11-13T09:07:29.770Z,5.40
2022-11-13T09:08:32.925Z,5.47
2022-11-13T09:09:35.687Z,6.03
2022-11-13T09:10:37.268Z,5.80
2022-11-13T09:11:41.172Z,5.20
2022-11-13T09:12:42.766Z,5.07
2022-11-13T09:13:49.476Z,4.50
2022-11-13T09:14:54.668Z,4.88
2022-11-13T09:15:58.215Z,4.80
2022-11-13T09:17:00.747Z,5.45
2022-11-13T09:18:03.087Z,4.43
2022-11-13T09:19:05.787Z,4.72
2022-11-13T09:20:11.308Z,4.75
2022-11-13T09:21:16.259Z,4.60
2022-11-13T09:22:18.812Z,4.18
2022-11-13T09:23:20.682Z,4.50
2022-11-13T09:24:23.275Z,4.30
2022-11-13T09:25:24.973Z,4.45
2022-11-13T09:26:27.497Z,3.97
2022-11-13T09:27:31.512Z,4.60
2022-11-13T09:28:34.131Z,4.25
2022-11-13T09:29:36.060Z,3.78
2022-11-13T09:30:40.105Z,4.65
2022-11-13T09:31:42.662Z,4.35
2022-11-13T09:32:44.214Z,3.80
2022-11-13T09:33:46.696Z,4.05
2022-11-13T09:34:48.221Z,3.88
2022-11-13T09:35:50.824Z,4.57
2022-11-13T09:36:52.510Z,4.43
2022-11-13T09:37:55.039Z,4.30
2022-11-13T09:38:57.602Z,4.13
2022-11-13T09:39:59.261Z,4.15
2022-11-13T09:41:04.748Z,4.15
2022-11-13T09:42:13.870Z,4.72
2022-11-13T09:43:28.196Z,3.85
2022-11-13T09:44:34.107Z,4.10
2022-11-13T09:45:35.737Z,3.85
2022-11-13T09:46:41.621Z,3.75
2022-11-13T09:47:44.627Z,4.30
2022-11-13T09:48:52.195Z,4.03
2022-11-13T09:49:57.018Z,3.75
2022-11-13T09:51:00.717Z,4.13
2022-11-13T09:52:07.003Z,3.55
2022-11-13T09:53:09.770Z,3.67
2022-11-13T09:54:14.968Z,4.10
2022-11-13T09:55:18.842Z,4.10
2022-11-13T09:56:27.574Z,4.32
2022-11-13T09:57:41.561Z,3.70
2022-11-13T09:58:50.597Z,3.97
2022-11-13T09:59:56.470Z,3.55
2022-11-13T10:01:00.372Z,3.67
2022-11-13T10:02:19.107Z,4.30
2022-11-13T10:03:59.088Z,3.72
2022-11-13T10:04:58.960Z,3.47
2022-11-13T10:06:04.697Z,3.10
2022-11-13T10:07:23.047Z,3.83
2022-11-13T10:08:29.023Z,3.42
2022-11-13T10:09:37.332Z,4.38
2022-11-13T10:10:55.236Z,4.13
2022-11-13T10:12:00.300Z,3.80
2022-11-13T10:13:02.315Z,3.90
2022-11-13T10:14:11.268Z,3.50
2022-11-13T10:15:14.205Z,3.60
2022-11-13T10:16:21.256Z,3.30
2022-11-13T10:17:30.042Z,2.95
2022-11-13T10:18:35.409Z,3.30
2022-11-13T10:19:42.539Z,4.05
2022-11-13T10:20:48.959Z,3.45
2022-11-13T10:22:07.624Z,3.55
2022-11-13T10:23:18.851Z,3.72
2022-11-13T10:24:25.155Z,3.08
2022-11-13T10:25:30.161Z,3.20
2022-11-13T10:26:32.026Z,3.92
2022-11-13T10:27:34.666Z,3.05
2022-11-13T10:28:54.826Z,3.33
2022-11-13T10:29:59.071Z,3.70
2022-11-13T10:31:01.590Z,2.97
2022-11-13T10:32:16.919Z,3.17
2022-11-13T10:33:20.990Z,3.60
2022-11-13T10:34:23.552Z,3.92
2022-11-13T10:35:47.095Z,3.63
2022-11-13T10:37:00.661Z,3.10
2022-11-13T10:38:08.461Z,3.90
2022-11-13T10:39:12.535Z,3.47
2022-11-13T10:40:25.200Z,3.45
2022-11-13T10:41:28.034Z,3.20
2022-11-13T10:42:36.636Z,3.25
2022-11-13T10:43:57.205Z,3.17
2022-11-13T10:45:00.587Z,3.38
2022-11-13T10:46:05.046Z,3.55
2022-11-13T10:47:15.171Z,3.70
2022-11-13T10:48:21.646Z,3.47
2022-11-13T10:49:29.000Z,3.08
2022-11-13T10:50:32.161Z,2.95
2022-11-13T10:51:35.940Z,2.88
2022-11-13T10:52:45.320Z,3.22
2022-11-13T10:53:48.441Z,3.22
2022-11-13T10:54:50.499Z,3.08
2022-11-13T10:55:54.144Z,2.97
2022-11-13T10:57:00.875Z,3.15
2022-11-13T10:58:05.936Z,3.20
2022-11-13T10:59:13.458Z,3.08
2022-11-13T11:00:24.463Z,3.35
2022-11-13T11:01:27.025Z,3.17
2022-11-13T11:02:29.652Z,2.75
2022-11-13T11:03:31.270Z,3.08
2022-11-13T11:04:33.785Z,2.75
2022-11-13T11:05:35.430Z,2.90
2022-11-13T11:08:09.316Z,3.00
2022-11-13T11:09:19.265Z,2.83
2022-11-13T11:10:23.923Z,3.40
2022-11-13T11:11:44.217Z,2.95
2022-11-13T11:12:52.808Z,3.17
2022-11-13T11:14:04.973Z,2.75
2022-11-13T11:15:20.026Z,2.58
2022-11-13T11:16:25.018Z,3.45
2022-11-13T11:17:31.723Z,2.67
2022-11-13T11:18:45.941Z,3.17
2022-11-13T11:19:52.579Z,2.90
2022-11-13T11:20:58.021Z,3.15
2022-11-13T11:22:08.032Z,2.90
2022-11-13T11:23:17.345Z,2.90
2022-11-13T11:24:23.215Z,3.10
2022-11-13T11:25:32.170Z,2.72
2022-11-13T11:26:38.362Z,2.95
2022-11-13T11:27:43.471Z,2.72
2022-11-13T11:28:48.715Z,2.47
2022-11-13T11:29:54.352Z,3.00
2022-11-13T11:30:59.840Z,2.80
2022-11-13T11:32:08.243Z,2.85
2022-11-13T11:33:15.535Z,2.55
2022-11-13T11:34:20.666Z,2.42
2022-11-13T11:35:26.083Z,2.42
2022-11-13T11:36:31.615Z,2.80
2022-11-13T11:37:37.565Z,2.63
2022-11-13T11:38:45.732Z,2.40
2022-11-13T11:39:50.360Z,2.70
2022-11-13T11:40:54.288Z,2.83
2022-11-13T11:42:05.839Z,2.63
2022-11-13T11:43:17.241Z,2.17
2022-11-13T11:44:23.729Z,2.22
2022-11-13T11:45:30.000Z,2.53
2022-11-13T11:46:32.661Z,2.50
2022-11-13T11:47:36.718Z,2.25
2022-11-13T11:48:38.329Z,2.60
2022-11-13T11:49:40.875Z,2.72
2022-11-13T11:50:49.946Z,2.85
2022-11-13T11:52:02.397Z,2.35
2022-11-13T11:53:09.356Z,2.75
2022-11-13T11:54:22.253Z,2.25
2022-11-13T11:55:49.890Z,2.75
2022-11-13T11:56:54.284Z,2.08
2022-11-13T11:57:58.463Z,1.95
2022-11-13T11:59:08.523Z,2.30
2022-11-13T12:00:13.290Z,2.10
2022-11-13T12:01:20.584Z,2.70
2022-11-13T12:02:46.362Z,2.35
2022-11-13T12:03:59.240Z,2.25
2022-11-13T12:05:14.383Z,2.00
2022-11-13T12:06:28.320Z,3.25
2022-11-13T12:07:36.702Z,2.30
2022-11-13T12:08:44.641Z,2.13
2022-11-13T12:09:52.745Z,2.40
2022-11-13T12:10:59.576Z,2.10
2022-11-13T12:12:08.622Z,2.28
2022-11-13T12:13:20.248Z,1.80
2022-11-13T12:14:29.810Z,2.25
2022-11-13T12:15:37.061Z,2.10
2022-11-13T12:16:44.677Z,2.13
2022-11-13T12:17:57.049Z,2.05
2022-11-13T12:19:03.524Z,2.17
2022-11-13T12:20:15.010Z,1.65
2022-11-13T12:21:23.295Z,2.08
2022-11-13T12:22:31.035Z,2.05
2022-11-13T12:23:44.303Z,2.22
2022-11-13T12:24:57.064Z,2.20
2022-11-13T12:26:04.359Z,2.10
2022-11-13T12:27:17.240Z,2.42
2022-11-13T12:28:22.990Z,2.38
2022-11-13T12:29:38.379Z,2.05
2022-11-13T12:30:48.744Z,1.92
2022-11-13T12:32:00.218Z,2.28
2022-11-13T12:33:22.718Z,2.40
2022-11-13T12:34:27.883Z,2.20
2022-11-13T12:35:30.655Z,2.20
2022-11-13T12:36:33.464Z,2.30
2022-11-13T12:37:40.855Z,2.50
2022-11-13T12:38:48.726Z,1.92
2022-11-13T12:39:55.957Z,2.45
2022-11-13T12:41:03.346Z,2.35
2022-11-13T12:42:13.511Z,2.20
2022-11-13T12:43:47.832Z,2.63
2022-11-13T12:44:56.425Z,2.33
2022-11-13T12:46:02.047Z,2.58
2022-11-13T12:47:04.695Z,2.17
2022-11-13T12:48:09.265Z,2.42
2022-11-13T12:49:30.722Z,2.25
2022-11-13T12:50:33.548Z,2.28
2022-11-13T12:51:39.310Z,2.13
2022-11-13T12:52:41.824Z,2.00
2022-11-13T12:53:45.445Z,2.15
2022-11-13T12:54:47.950Z,2.42
2022-11-13T12:55:59.871Z,1.60
2022-11-13T12:57:18.658Z,2.03
2022-11-13T12:58:21.332Z,2.22
2022-11-13T12:59:33.880Z,2.15
2022-11-13T13:00:37.012Z,2.25
2022-11-13T13:01:44.938Z,1.85
2022-11-13T13:02:55.449Z,1.80
2022-11-13T13:04:16.998Z,1.70
2022-11-13T13:05:34.339Z,2.05
2022-11-13T13:06:46.395Z,1.67
2022-11-13T13:08:42.685Z,1.63
2022-11-13T13:09:54.295Z,1.88
2022-11-13T13:11:05.614Z,1.90
2022-11-13T13:12:16.784Z,1.90
2022-11-13T13:13:24.900Z,2.00
2022-11-13T13:14:37.775Z,1.90
2022-11-13T13:15:41.308Z,1.90
2022-11-13T13:16:43.927Z,1.77
2022-11-13T13:17:45.501Z,1.60
2022-11-13T13:18:48.108Z,1.65
2022-11-13T13:19:58.756Z,2.08
2022-11-13T13:21:07.077Z,2.05
2022-11-13T13:22:13.658Z,2.20
2022-11-13T13:23:27.785Z,1.60
2022-11-13T13:24:33.234Z,2.00
2022-11-13T13:25:35.981Z,1.77
2022-11-13T13:26:45.859Z,1.80
2022-11-13T13:27:56.910Z,1.98
2022-11-13T13:29:03.377Z,1.60
2022-11-13T13:30:20.449Z,1.70
2022-11-13T13:31:33.473Z,1.75
2022-11-13T13:32:42.137Z,1.63
2022-11-13T13:33:52.765Z,1.60
2022-11-13T13:35:00.157Z,1.60
2022-11-13T13:36:15.237Z,1.42
2022-11-13T13:37:24.641Z,1.60
2022-11-13T13:38:31.051Z,1.70
2022-11-13T13:39:43.616Z,1.40
2022-11-13T13:40:57.629Z,1.52
2022-11-13T13:42:11.724Z,1.80
2022-11-13T13:43:31.201Z,1.48
2022-11-13T13:44:46.985Z,2.28
2022-11-13T13:45:55.528Z,2.10
2022-11-13T13:46:58.336Z,1.85
2022-11-13T13:48:00.644Z,1.80
2022-11-13T13:49:06.749Z,1.83
2022-11-13T13:50:13.886Z,2.05
2022-11-13T13:51:25.946Z,2.05
2022-11-13T13:52:30.817Z,1.45
2022-11-13T13:53:35.939Z,2.13
2022-11-13T13:54:40.494Z,2.05
2022-11-13T13:55:47.299Z,2.00
2022-11-13T13:56:49.232Z,1.95
2022-11-13T13:57:51.904Z,1.88
2022-11-13T13:58:53.888Z,2.65
2022-11-13T13:59:56.672Z,1.77
2022-11-13T14:01:17.614Z,2.20
2022-11-13T14:02:23.132Z,2.08
2022-11-13T14:03:26.056Z,2.40
2022-11-13T14:04:29.981Z,2.45
2022-11-13T14:05:33.984Z,2.13
2022-11-13T14:06:48.923Z,2.05
2022-11-13T14:07:51.454Z,2.00
2022-11-13T14:08:53.929Z,1.83
2022-11-13T14:10:14.956Z,2.67
2022-11-13T14:11:18.271Z,2.00
2022-11-13T14:12:23.277Z,1.90
2022-11-13T14:13:26.340Z,2.10
2022-11-13T14:14:29.490Z,2.13